createdAt,value
2022-08-10T00:00:35.263Z,15.57
2022-08-10T00:01:35.367Z,15.70
2022-08-10T00:02:35.551Z,15.62
2022-08-10T00:03:35.270Z,15.59
2022-08-10T00:04:35.230Z,15.55
2022-08-10T00:05:43.546Z,15.59
2022-08-10T00:06:36.215Z,15.59
2022-08-10T00:07:35.212Z,15.57
2022-08-10T00:08:35.234Z,15.57
2022-08-10T00:09:50.704Z,15.58
2022-08-10T00:10:36.191Z,15.58
2022-08-10T00:11:35.173Z,15.54
2022-08-10T00:12:54.587Z,15.57
2022-08-10T00:13:36.197Z,15.58
2022-08-10T00:14:35.155Z,15.49
2022-08-10T00:15:44.359Z,15.52
2022-08-10T00:16:36.143Z,15.54
2022-08-10T00:17:35.142Z,15.57
2022-08-10T00:18:36.410Z,15.62
2022-08-10T00:19:35.119Z,15.62
2022-08-10T00:20:36.125Z,15.64
2022-08-10T00:21:35.100Z,15.55
2022-08-10T00:22:35.392Z,15.49
2022-08-10T00:23:35.090Z,15.52
2022-08-10T00:24:35.103Z,15.46
2022-08-10T00:25:35.073Z,15.33
2022-08-10T00:27:57.933Z,15.31
2022-08-10T00:27:57.957Z,15.37
2022-08-10T00:28:36.050Z,15.25
2022-08-10T00:29:35.068Z,15.27
2022-08-10T00:30:35.054Z,15.14
2022-08-10T00:31:58.355Z,15.03
2022-08-10T00:32:36.240Z,15.00
2022-08-10T00:33:35.141Z,14.89
2022-08-10T00:34:35.013Z,14.96
2022-08-10T00:35:35.006Z,14.97
2022-08-10T00:36:34.992Z,15.03
2022-08-10T00:37:34.998Z,14.92
2022-08-10T00:38:35.008Z,14.99
2022-08-10T00:39:36.354Z,15.00
2022-08-10T00:40:37.944Z,15.00
2022-08-10T00:41:34.952Z,14.88
2022-08-10T00:42:35.193Z,14.86
2022-08-10T00:43:34.974Z,14.82
2022-08-10T00:44:34.925Z,14.82
2022-08-10T00:45:34.939Z,14.79
2022-08-10T00:46:34.921Z,14.72
2022-08-10T00:47:37.257Z,14.82
2022-08-10T00:48:34.901Z,14.88
2022-08-10T00:49:34.953Z,14.81
2022-08-10T00:50:34.889Z,14.92
2022-08-10T00:51:43.072Z,14.97
2022-08-10T00:52:36.128Z,14.96
2022-08-10T00:53:34.865Z,14.84
2022-08-10T00:54:34.885Z,14.85
2022-08-10T00:57:15.246Z,14.81
2022-08-10T00:57:16.514Z,14.85
2022-08-10T00:57:35.835Z,14.82
2022-08-10T00:58:34.826Z,14.66
2022-08-10T00:59:34.864Z,14.72
2022-08-10T01:00:35.809Z,14.73
2022-08-10T01:02:11.241Z,14.65
2022-08-10T01:02:36.137Z,14.63
2022-08-10T01:04:58.714Z,14.48
2022-08-10T01:04:59.241Z,14.50
2022-08-10T01:05:35.778Z,14.47
2022-08-10T01:06:35.775Z,14.45
2022-08-10T01:07:34.759Z,14.40
2022-08-10T01:08:34.744Z,14.44
2022-08-10T01:09:34.776Z,14.45
2022-08-10T01:10:34.736Z,14.51
2022-08-10T01:12:39.650Z,14.47
2022-08-10T01:12:47.676Z,14.63
2022-08-10T01:13:35.716Z,14.73
2022-08-10T01:14:34.733Z,14.78
2022-08-10T01:15:34.699Z,14.84
2022-08-10T01:16:34.687Z,14.79
2022-08-10T01:17:50.475Z,14.82
2022-08-10T01:18:37.848Z,14.84
2022-08-10T01:19:35.693Z,14.81
2022-08-10T01:20:34.677Z,14.78
2022-08-10T01:21:34.664Z,14.66
2022-08-10T01:22:34.827Z,14.82
2022-08-10T01:23:34.634Z,14.70
2022-08-10T01:24:34.648Z,14.66
2022-08-10T01:25:34.647Z,14.69
2022-08-10T01:26:37.202Z,14.66
2022-08-10T01:27:34.601Z,14.51
2022-08-10T01:28:34.630Z,14.48
2022-08-10T01:29:34.588Z,14.50
2022-08-10T01:30:34.626Z,14.45
2022-08-10T01:31:34.580Z,14.33
2022-08-10T01:33:06.502Z,14.37
2022-08-10T01:33:57.998Z,14.33
2022-08-10T01:34:35.547Z,14.41
2022-08-10T01:35:34.537Z,14.35
2022-08-10T01:36:34.535Z,14.11
2022-08-10T01:37:34.526Z,14.17
2022-08-10T01:38:34.560Z,14.22
2022-08-10T01:39:34.610Z,14.10
2022-08-10T01:40:34.505Z,14.15
2022-08-10T01:41:45.928Z,14.12
2022-08-10T01:42:35.747Z,14.25
2022-08-10T01:43:34.525Z,14.11
2022-08-10T01:44:34.472Z,14.20
2022-08-10T01:45:44.732Z,14.23
2022-08-10T01:46:35.455Z,14.23
2022-08-10T01:47:34.450Z,14.26
2022-08-10T01:48:34.461Z,14.26
2022-08-10T01:49:34.426Z,14.29
2022-08-10T01:50:34.427Z,14.33
2022-08-10T01:51:35.426Z,14.40
2022-08-10T01:52:34.602Z,14.48
2022-08-10T01:53:41.218Z,14.41
2022-08-10T01:54:35.382Z,14.45
2022-08-10T01:55:35.385Z,14.44
2022-08-10T01:56:34.378Z,14.48
2022-08-10T01:57:34.373Z,14.43
2022-08-10T01:58:34.391Z,14.45
2022-08-10T01:59:34.354Z,14.40
2022-08-10T02:00:34.348Z,14.45
2022-08-10T02:01:34.365Z,14.40
2022-08-10T02:02:34.551Z,14.33
2022-08-10T02:03:34.361Z,14.36
2022-08-10T02:04:35.333Z,14.35
2022-08-10T02:05:34.311Z,14.36
2022-08-10T02:06:34.299Z,14.32
2022-08-10T02:07:34.288Z,14.20
2022-08-10T02:08:34.283Z,14.17
2022-08-10T02:09:34.297Z,14.22
2022-08-10T02:10:34.270Z,14.28
2022-08-10T02:11:55.847Z,14.25
2022-08-10T02:12:35.410Z,14.25
2022-08-10T02:13:34.251Z,14.25
2022-08-10T02:14:34.622Z,14.35
2022-08-10T02:15:34.231Z,14.35
2022-08-10T02:16:34.222Z,14.29
2022-08-10T02:18:00.466Z,14.28
2022-08-10T02:18:35.212Z,14.23
2022-08-10T02:19:34.229Z,14.25
2022-08-10T02:20:34.198Z,14.20
2022-08-10T02:21:34.187Z,13.87
2022-08-10T02:22:38.173Z,13.90
2022-08-10T02:23:35.169Z,13.79
2022-08-10T02:24:34.192Z,13.81
2022-08-10T02:25:42.040Z,13.78
2022-08-10T02:26:35.153Z,13.83
2022-08-10T02:27:34.142Z,13.79
2022-08-10T02:28:34.135Z,13.75
2022-08-10T02:29:34.157Z,13.68
2022-08-10T02:30:34.123Z,13.70
2022-08-10T02:31:34.108Z,13.63
2022-08-10T02:32:36.498Z,13.72
2022-08-10T02:33:37.282Z,13.74
2022-08-10T02:34:34.096Z,13.75
2022-08-10T02:35:55.438Z,13.67
2022-08-10T02:36:35.071Z,13.79
2022-08-10T02:37:34.059Z,13.70
2022-08-10T02:38:58.963Z,13.68
2022-08-10T02:39:35.105Z,13.62
2022-08-10T02:45:01.976Z,13.52
2022-08-10T02:45:16.175Z,13.57
2022-08-10T02:45:20.243Z,13.27
2022-08-10T02:45:23.641Z,13.38
2022-08-10T02:45:29.330Z,13.22
2022-08-10T02:45:36.241Z,13.20
2022-08-10T02:46:33.989Z,13.30
2022-08-10T02:47:50.768Z,13.30
2022-08-10T02:48:34.974Z,13.39
2022-08-10T02:49:33.965Z,13.46
2022-08-10T02:50:34.009Z,13.42
2022-08-10T02:52:08.190Z,13.41
2022-08-10T02:52:35.135Z,13.54
2022-08-10T02:53:54.743Z,13.54
2022-08-10T02:54:34.928Z,13.63
2022-08-10T02:55:33.947Z,13.54
2022-08-10T02:56:33.915Z,13.67
2022-08-10T02:57:33.908Z,13.59
2022-08-10T02:58:33.897Z,13.67
2022-08-10T02:59:40.057Z,13.62
2022-08-10T03:00:34.907Z,13.71
2022-08-10T03:01:33.995Z,13.63
2022-08-10T03:02:33.954Z,13.74
2022-08-10T03:03:33.861Z,13.63
2022-08-10T03:04:54.957Z,13.67
2022-08-10T03:05:34.868Z,13.56
2022-08-10T03:06:33.833Z,13.59
2022-08-10T03:07:43.698Z,13.52
2022-08-10T03:08:34.819Z,13.49
2022-08-10T03:09:33.812Z,13.46
2022-08-10T03:10:33.836Z,13.47
2022-08-10T03:12:35.426Z,13.41
2022-08-10T03:12:36.790Z,13.38
2022-08-10T03:13:33.782Z,13.41
2022-08-10T03:14:33.797Z,13.49
2022-08-10T03:15:33.764Z,13.41
2022-08-10T03:16:33.755Z,13.50
2022-08-10T03:17:33.750Z,13.46
2022-08-10T03:18:33.736Z,13.52
2022-08-10T03:20:35.157Z,13.41
2022-08-10T03:20:39.551Z,13.42
2022-08-10T03:21:34.715Z,13.39
2022-08-10T03:22:33.848Z,13.38
2022-08-10T03:23:33.707Z,13.42
2022-08-10T03:24:33.711Z,13.54
2022-08-10T03:25:34.685Z,13.37
2022-08-10T03:26:33.678Z,13.31
2022-08-10T03:27:33.673Z,13.20
2022-08-10T03:28:33.669Z,13.25
2022-08-10T03:30:28.319Z,13.25
2022-08-10T03:30:34.764Z,13.19
2022-08-10T03:31:34.685Z,13.16
2022-08-10T03:32:34.778Z,13.05
2022-08-10T03:33:33.627Z,13.04
2022-08-10T03:34:33.916Z,13.01
2022-08-10T03:35:33.632Z,12.91
2022-08-10T03:36:43.212Z,12.94
2022-08-10T03:37:35.598Z,13.03
2022-08-10T03:38:33.591Z,12.94
2022-08-10T03:39:33.625Z,13.00
2022-08-10T03:40:45.661Z,12.91
2022-08-10T03:41:35.588Z,12.79
2022-08-10T03:42:33.644Z,12.76
2022-08-10T03:43:33.551Z,12.93
2022-08-10T03:44:33.547Z,12.82
2022-08-10T03:45:55.180Z,12.79
2022-08-10T03:46:34.532Z,12.76
2022-08-10T03:47:33.522Z,12.75
2022-08-10T03:48:48.682Z,12.86
2022-08-10T03:49:34.508Z,12.87
2022-08-10T03:50:50.911Z,12.90
2022-08-10T03:51:34.493Z,12.83
2022-08-10T03:52:33.481Z,12.82
2022-08-10T03:54:02.880Z,12.87
2022-08-10T03:54:34.465Z,12.98
2022-08-10T03:56:29.412Z,12.93
2022-08-10T03:56:34.457Z,12.83
2022-08-10T03:57:33.457Z,12.97
2022-08-10T03:58:33.433Z,12.93
2022-08-10T03:59:33.426Z,12.95
2022-08-10T04:00:33.507Z,12.94
2022-08-10T04:02:43.271Z,13.04
2022-08-10T04:02:44.496Z,12.97
2022-08-10T04:03:34.392Z,12.95
2022-08-10T04:04:33.386Z,12.90
2022-08-10T04:05:38.599Z,12.93
2022-08-10T04:06:34.369Z,12.95
2022-08-10T04:07:33.362Z,13.01
2022-08-10T04:08:33.355Z,12.93
2022-08-10T04:09:54.045Z,12.94
2022-08-10T04:10:34.340Z,12.86
2022-08-10T04:11:33.347Z,12.95
2022-08-10T04:12:33.323Z,12.80
2022-08-10T04:13:33.318Z,12.85
2022-08-10T04:14:37.921Z,12.80
2022-08-10T04:15:34.298Z,12.82
2022-08-10T04:16:33.308Z,12.75
2022-08-10T04:18:03.939Z,12.75
2022-08-10T04:18:34.278Z,12.76
2022-08-10T04:19:33.302Z,12.68
2022-08-10T04:20:34.966Z,12.70
2022-08-10T04:21:33.264Z,12.65
2022-08-10T04:22:33.247Z,12.65
2022-08-10T04:23:33.245Z,12.73
2022-08-10T04:24:33.365Z,12.78
2022-08-10T04:25:33.258Z,12.65
2022-08-10T04:26:33.223Z,12.76
2022-08-10T04:27:33.217Z,12.86
2022-08-10T04:28:33.209Z,12.93
2022-08-10T04:29:33.199Z,12.91
2022-08-10T04:30:33.215Z,13.01
2022-08-10T04:31:33.180Z,13.00
2022-08-10T04:32:33.171Z,13.12
2022-08-10T04:33:33.171Z,13.20
2022-08-10T04:34:33.150Z,13.23
2022-08-10T04:35:34.173Z,13.27
2022-08-10T04:36:33.137Z,13.60
2022-08-10T04:37:33.133Z,13.87
2022-08-10T04:38:33.127Z,14.10
2022-08-10T04:39:33.150Z,14.36
2022-08-10T04:40:33.135Z,14.77
2022-08-10T04:41:33.100Z,15.03
2022-08-10T04:42:33.096Z,15.29
2022-08-10T04:43:33.086Z,15.68
2022-08-10T04:44:33.080Z,16.08
2022-08-10T04:45:50.036Z,16.21
2022-08-10T04:46:42.475Z,15.92
2022-08-10T04:47:51.120Z,15.88
2022-08-10T04:48:43.640Z,15.84
2022-08-10T04:49:54.616Z,16.13
2022-08-10T04:50:34.057Z,16.31
2022-08-10T04:51:33.019Z,16.28
2022-08-10T04:52:33.068Z,16.16
2022-08-10T04:53:33.011Z,16.02
2022-08-10T04:54:33.001Z,15.83
2022-08-10T04:55:33.016Z,15.83
2022-08-10T04:56:32.983Z,15.79
2022-08-10T04:57:32.978Z,16.13
2022-08-10T04:58:32.989Z,16.24
2022-08-10T04:59:32.961Z,16.78
2022-08-10T05:00:33.021Z,17.34
2022-08-10T05:02:12.142Z,17.57
2022-08-10T05:02:34.052Z,16.79
2022-08-10T05:03:32.930Z,16.42
2022-08-10T05:04:33.127Z,16.46
2022-08-10T05:05:33.948Z,16.79
2022-08-10T05:06:32.910Z,17.05
2022-08-10T05:07:32.902Z,16.76
2022-08-10T05:08:33.898Z,16.64
2022-08-10T05:09:32.889Z,16.66
2022-08-10T05:10:32.903Z,17.15
2022-08-10T05:11:32.873Z,17.86
2022-08-10T05:12:36.060Z,18.41
2022-08-10T05:13:32.863Z,18.95
2022-08-10T05:14:32.850Z,19.15
2022-08-10T05:15:32.867Z,19.27
2022-08-10T05:16:32.833Z,19.04
2022-08-10T05:17:32.824Z,19.18
2022-08-10T05:18:32.817Z,19.63
2022-08-10T05:20:04.905Z,19.56
2022-08-10T05:20:33.825Z,19.34
2022-08-10T05:22:03.175Z,19.45
2022-08-10T05:22:33.791Z,19.82
2022-08-10T05:23:32.776Z,20.19
2022-08-10T05:24:32.771Z,20.62
2022-08-10T05:25:37.532Z,20.80
2022-08-10T05:26:33.753Z,20.47
2022-08-10T05:27:32.752Z,20.58
2022-08-10T05:28:32.745Z,20.04
2022-08-10T05:29:32.734Z,18.98
2022-08-10T05:30:32.765Z,18.04
2022-08-10T05:31:32.719Z,17.57
2022-08-10T05:32:34.342Z,17.56
2022-08-10T05:33:33.703Z,17.59
2022-08-10T05:34:32.695Z,17.78
2022-08-10T05:35:56.940Z,17.94
2022-08-10T05:36:33.676Z,17.94
2022-08-10T05:38:13.312Z,17.76
2022-08-10T05:38:33.663Z,18.40
2022-08-10T05:39:32.679Z,19.00
2022-08-10T05:40:32.676Z,17.97
2022-08-10T05:41:32.642Z,17.26
2022-08-10T05:42:32.692Z,17.74
2022-08-10T05:43:32.627Z,18.11
2022-08-10T05:44:32.614Z,17.70
2022-08-10T05:45:32.645Z,17.76
2022-08-10T05:46:32.600Z,18.59
2022-08-10T05:48:54.828Z,18.38
2022-08-10T05:48:57.921Z,18.00
2022-08-10T05:49:33.582Z,18.25
2022-08-10T05:50:32.597Z,19.21
2022-08-10T05:51:32.560Z,19.82
2022-08-10T05:52:32.617Z,20.13
2022-08-10T05:54:01.984Z,19.56
2022-08-10T05:54:33.545Z,19.00
2022-08-10T05:55:32.573Z,19.11
2022-08-10T05:56:57.160Z,19.31
2022-08-10T05:57:33.523Z,18.89
2022-08-10T05:58:32.517Z,18.77
2022-08-10T06:00:32.782Z,19.07
2022-08-10T06:00:39.844Z,18.92
2022-08-10T06:01:33.584Z,18.68
2022-08-10T06:02:35.306Z,18.40
2022-08-10T06:03:34.479Z,18.31
2022-08-10T06:04:32.474Z,17.52
2022-08-10T06:05:32.466Z,17.33
2022-08-10T06:06:32.477Z,17.16
2022-08-10T06:07:32.446Z,17.38
2022-08-10T06:08:32.441Z,17.72
2022-08-10T06:09:32.432Z,17.80
2022-08-10T06:10:35.312Z,18.05
2022-08-10T06:12:24.437Z,17.65
2022-08-10T06:12:53.307Z,17.65
2022-08-10T06:13:43.592Z,17.76
2022-08-10T06:14:33.392Z,17.83
2022-08-10T06:15:51.943Z,17.44
2022-08-10T06:16:33.410Z,17.79
2022-08-10T06:17:32.382Z,18.13
2022-08-10T06:18:32.368Z,18.50
2022-08-10T06:19:32.361Z,18.70
2022-08-10T06:20:35.846Z,18.80
2022-08-10T06:21:33.484Z,18.95
2022-08-10T06:22:32.448Z,19.08
2022-08-10T06:23:32.336Z,18.93
2022-08-10T06:24:32.326Z,19.00
2022-08-10T06:26:10.103Z,19.30
2022-08-10T06:26:34.334Z,19.58
2022-08-10T06:27:34.311Z,19.88
2022-08-10T06:28:32.295Z,19.89
2022-08-10T06:29:32.287Z,19.76
2022-08-10T06:30:32.284Z,19.64
2022-08-10T06:31:46.680Z,19.74
2022-08-10T06:32:34.399Z,19.63
2022-08-10T06:33:32.259Z,19.63
2022-08-10T06:34:32.248Z,19.59
2022-08-10T06:35:32.247Z,19.51
2022-08-10T06:36:34.043Z,19.58
2022-08-10T06:37:32.233Z,19.67
2022-08-10T06:38:32.218Z,19.70
2022-08-10T06:39:34.862Z,19.86
2022-08-10T06:40:33.209Z,19.88
2022-08-10T06:41:57.851Z,19.76
2022-08-10T06:42:33.186Z,19.92
2022-08-10T06:43:32.184Z,20.06
2022-08-10T06:44:32.176Z,20.07
2022-08-10T06:45:32.169Z,20.09
2022-08-10T06:46:32.194Z,20.39
2022-08-10T06:47:32.159Z,20.48
2022-08-10T06:48:32.150Z,20.14
2022-08-10T06:49:32.139Z,19.39
2022-08-10T06:50:35.065Z,19.63
2022-08-10T06:51:33.152Z,19.85
2022-08-10T06:52:32.120Z,20.26
2022-08-10T06:53:51.992Z,20.74
2022-08-10T06:54:33.102Z,20.88
2022-08-10T06:55:39.873Z,20.95
2022-08-10T06:56:38.015Z,20.80
2022-08-10T06:57:33.075Z,20.60
2022-08-10T06:58:32.088Z,20.65
2022-08-10T06:59:32.062Z,20.70
2022-08-10T07:00:32.716Z,20.66
2022-08-10T07:01:32.116Z,20.50
2022-08-10T07:02:32.061Z,20.37
2022-08-10T07:03:32.033Z,20.36
2022-08-10T07:04:33.678Z,20.31
2022-08-10T07:05:33.017Z,20.41
2022-08-10T07:06:32.037Z,20.58
2022-08-10T07:07:32.001Z,20.59
2022-08-10T07:08:31.994Z,20.66
2022-08-10T07:09:31.991Z,20.50
2022-08-10T07:10:46.092Z,20.67
2022-08-10T07:11:33.000Z,20.74
2022-08-10T07:12:32.083Z,20.70
2022-08-10T07:14:17.237Z,20.58
2022-08-10T07:14:32.946Z,20.60
2022-08-10T07:15:59.396Z,20.72
2022-08-10T07:16:32.955Z,20.84
2022-08-10T07:17:35.894Z,20.92
2022-08-10T07:18:32.908Z,20.82
2022-08-10T07:19:31.910Z,20.75
2022-08-10T07:20:31.899Z,20.81
2022-08-10T07:21:31.922Z,20.88
2022-08-10T07:23:27.112Z,20.88
2022-08-10T07:23:57.350Z,21.21
2022-08-10T07:24:32.869Z,21.18
2022-08-10T07:25:31.861Z,21.17
2022-08-10T07:26:31.879Z,21.18
2022-08-10T07:27:39.120Z,21.03
2022-08-10T07:28:32.832Z,21.30
2022-08-10T07:29:53.233Z,21.36
2022-08-10T07:30:32.837Z,21.27
2022-08-10T07:31:55.686Z,21.25
2022-08-10T07:32:58.403Z,21.12
2022-08-10T07:33:31.801Z,21.42
2022-08-10T07:34:31.795Z,21.50
2022-08-10T07:35:37.022Z,21.36
2022-08-10T07:36:33.807Z,21.50
2022-08-10T07:37:31.770Z,21.76
2022-08-10T07:38:31.773Z,21.54
2022-08-10T07:39:57.897Z,21.48
2022-08-10T07:40:32.786Z,21.51
2022-08-10T07:41:31.772Z,21.29
2022-08-10T07:42:31.734Z,21.37
2022-08-10T07:43:31.724Z,21.46
2022-08-10T07:44:31.714Z,21.80
2022-08-10T07:45:31.705Z,21.88
2022-08-10T07:46:31.731Z,22.04
2022-08-10T07:47:53.780Z,22.06
2022-08-10T07:48:32.672Z,22.02
2022-08-10T07:49:32.669Z,22.13
2022-08-10T07:50:35.335Z,21.96
2022-08-10T07:51:31.686Z,22.11
2022-08-10T07:52:31.744Z,22.15
2022-08-10T07:53:31.651Z,22.22
2022-08-10T07:54:31.640Z,22.13
2022-08-10T07:56:01.597Z,22.30
2022-08-10T07:56:48.583Z,22.13
2022-08-10T07:57:36.871Z,22.20
2022-08-10T07:58:33.605Z,22.18
2022-08-10T07:59:31.610Z,22.43
2022-08-10T08:00:31.604Z,22.60
2022-08-10T08:01:31.777Z,22.75
2022-08-10T08:02:31.609Z,22.85
2022-08-10T08:03:31.576Z,22.51
2022-08-10T08:04:31.567Z,22.53
2022-08-10T08:05:59.180Z,22.48
2022-08-10T08:06:32.550Z,22.39
2022-08-10T08:07:31.578Z,22.45
2022-08-10T08:08:31.536Z,22.69
2022-08-10T08:09:31.534Z,22.83
2022-08-10T08:10:31.519Z,22.70
2022-08-10T08:11:31.509Z,22.76
2022-08-10T08:12:36.645Z,22.78
2022-08-10T08:13:33.495Z,22.81
2022-08-10T08:14:31.504Z,23.05
2022-08-10T08:16:20.344Z,23.08
2022-08-10T08:16:32.482Z,23.28
2022-08-10T08:17:36.461Z,23.13
2022-08-10T08:18:32.459Z,22.87
2022-08-10T08:19:37.851Z,23.40
2022-08-10T08:20:32.446Z,23.48
2022-08-10T08:24:05.726Z,23.68
2022-08-10T08:24:08.092Z,23.73
2022-08-10T08:24:14.654Z,23.59
2022-08-10T08:24:34.193Z,23.83
2022-08-10T08:25:31.414Z,23.71
2022-08-10T08:26:31.427Z,23.63
2022-08-10T08:27:31.397Z,23.56
2022-08-10T08:28:31.380Z,23.31
2022-08-10T08:29:31.382Z,23.51
2022-08-10T08:30:31.371Z,23.41
2022-08-10T08:31:31.411Z,23.41
2022-08-10T08:32:31.357Z,23.48
2022-08-10T08:33:41.368Z,23.73
2022-08-10T08:34:32.366Z,23.54
2022-08-10T08:35:31.337Z,23.87
2022-08-10T08:36:31.331Z,24.29
2022-08-10T08:38:30.289Z,24.30
2022-08-10T08:38:34.938Z,24.28
2022-08-10T08:39:31.361Z,24.30
2022-08-10T08:40:31.298Z,24.42
2022-08-10T08:41:31.295Z,24.55
2022-08-10T08:42:31.317Z,24.58
2022-08-10T08:43:31.790Z,24.69
2022-08-10T08:44:34.908Z,24.54
2022-08-10T08:45:32.268Z,24.69
2022-08-10T08:46:31.259Z,24.53
2022-08-10T08:48:03.009Z,24.48
2022-08-10T08:48:32.238Z,24.69
2022-08-10T08:50:08.176Z,24.88
2022-08-10T08:50:32.228Z,24.74
2022-08-10T08:52:07.181Z,24.74
2022-08-10T08:52:32.311Z,24.73
2022-08-10T08:54:01.629Z,24.47
2022-08-10T08:54:32.975Z,24.57
2022-08-10T08:56:04.945Z,24.70
2022-08-10T08:56:32.183Z,24.66
2022-08-10T08:57:49.339Z,24.66
2022-08-10T08:58:32.193Z,24.88
2022-08-10T08:59:31.173Z,24.86
2022-08-10T09:00:31.150Z,24.68
2022-08-10T09:01:40.483Z,24.74
2022-08-10T09:02:32.142Z,24.95
2022-08-10T09:03:31.157Z,25.23
2022-08-10T09:04:31.184Z,25.14
2022-08-10T09:05:31.123Z,25.29
2022-08-10T09:06:32.118Z,25.29
2022-08-10T09:07:59.758Z,25.43
2022-08-10T09:08:32.086Z,25.44
2022-08-10T09:09:31.089Z,24.93
2022-08-10T09:10:35.421Z,25.13
2022-08-10T09:11:33.074Z,25.18
2022-08-10T09:12:31.060Z,25.63
2022-08-10T09:13:31.066Z,25.63
2022-08-10T09:14:31.075Z,25.66
2022-08-10T09:15:39.762Z,25.88
2022-08-10T09:16:32.030Z,26.22
2022-08-10T09:17:31.025Z,26.25
2022-08-10T09:18:31.025Z,25.66
2022-08-10T09:19:36.383Z,25.41
2022-08-10T09:20:31.995Z,25.78
2022-08-10T09:21:31.001Z,26.05
2022-08-10T09:22:30.992Z,25.88
2022-08-10T09:24:04.372Z,25.91
2022-08-10T09:24:32.005Z,25.87
2022-08-10T09:25:30.961Z,25.91
2022-08-10T09:26:30.955Z,26.02
2022-08-10T09:27:30.946Z,26.33
2022-08-10T09:28:30.937Z,26.33
2022-08-10T09:29:30.956Z,26.40
2022-08-10T09:30:32.333Z,26.58
2022-08-10T09:31:31.925Z,26.38
2022-08-10T09:36:13.235Z,26.28
2022-08-10T09:36:21.064Z,26.33
2022-08-10T09:36:23.158Z,26.22
2022-08-10T09:36:26.175Z,26.28
2022-08-10T09:36:33.050Z,25.87
2022-08-10T09:37:40.077Z,26.06
2022-08-10T09:38:32.871Z,26.23
2022-08-10T09:40:06.938Z,25.95
2022-08-10T09:41:00.338Z,26.43
2022-08-10T09:41:31.865Z,26.38
2022-08-10T09:42:30.841Z,26.37
2022-08-10T09:43:30.834Z,26.06
2022-08-10T09:44:30.829Z,25.87
2022-08-10T09:45:30.841Z,25.91
2022-08-10T09:46:30.834Z,26.07
2022-08-10T09:47:58.518Z,26.38
2022-08-10T09:48:31.792Z,26.52
2022-08-10T09:49:53.956Z,26.55
2022-08-10T09:50:59.029Z,26.74
2022-08-10T09:51:45.231Z,26.75
2022-08-10T09:52:32.839Z,26.85
2022-08-10T09:53:30.764Z,26.71
2022-08-10T09:54:30.749Z,26.53
2022-08-10T09:56:16.995Z,26.75
2022-08-10T09:56:31.731Z,26.36
2022-08-10T09:57:55.101Z,26.44
2022-08-10T09:58:32.721Z,26.62
2022-08-10T10:00:01.386Z,26.83
2022-08-10T10:00:31.735Z,26.40
2022-08-10T10:02:03.018Z,26.48
2022-08-10T10:02:31.686Z,26.43
2022-08-10T10:03:30.715Z,26.26
2022-08-10T10:04:30.777Z,26.25
2022-08-10T10:05:30.694Z,26.15
2022-08-10T10:06:30.657Z,26.15
2022-08-10T10:07:30.672Z,26.23
2022-08-10T10:08:30.647Z,26.45
2022-08-10T10:09:30.672Z,26.56
2022-08-10T10:10:30.631Z,26.71
2022-08-10T10:11:30.627Z,26.36
2022-08-10T10:12:30.629Z,26.05
2022-08-10T10:13:49.960Z,26.03
2022-08-10T10:14:31.632Z,25.99
2022-08-10T10:15:30.602Z,26.53
2022-08-10T10:16:30.663Z,26.80
2022-08-10T10:17:30.580Z,26.71
2022-08-10T10:18:30.576Z,26.51
2022-08-10T10:19:30.593Z,26.43
2022-08-10T10:20:30.556Z,26.58
2022-08-10T10:21:55.067Z,26.81
2022-08-10T10:22:31.547Z,26.93
2022-08-10T10:23:30.533Z,27.22
2022-08-10T10:24:30.526Z,27.36
2022-08-10T10:25:50.267Z,27.45
2022-08-10T10:26:31.513Z,27.11
2022-08-10T10:27:30.512Z,26.81
2022-08-10T10:28:57.599Z,27.03
2022-08-10T10:29:57.291Z,26.99
2022-08-10T10:30:32.498Z,26.85
2022-08-10T10:31:30.477Z,27.14
2022-08-10T10:32:32.092Z,27.10
2022-08-10T10:33:31.469Z,26.88
2022-08-10T10:34:30.460Z,26.77
2022-08-10T10:35:30.486Z,26.68
2022-08-10T10:36:30.460Z,26.62
2022-08-10T10:38:00.277Z,26.85
2022-08-10T10:38:31.435Z,26.45
2022-08-10T10:39:30.511Z,26.43
2022-08-10T10:40:30.443Z,26.63
2022-08-10T10:41:30.409Z,26.63
2022-08-10T10:42:45.892Z,26.73
2022-08-10T10:43:32.392Z,26.96
2022-08-10T10:44:30.762Z,26.99
2022-08-10T10:45:30.413Z,27.22
2022-08-10T10:46:30.374Z,27.54
2022-08-10T10:47:30.372Z,27.67
2022-08-10T10:48:30.357Z,27.42
2022-08-10T10:49:30.360Z,27.15
2022-08-10T10:50:30.372Z,26.99
2022-08-10T10:51:30.338Z,26.74
2022-08-10T10:52:30.329Z,26.73
2022-08-10T10:53:30.345Z,26.66
2022-08-10T10:54:30.317Z,26.89
2022-08-10T10:55:30.339Z,26.78
2022-08-10T10:56:30.314Z,27.07
2022-08-10T10:57:59.534Z,26.95
2022-08-10T10:58:31.282Z,26.84
2022-08-10T10:59:54.594Z,26.78
2022-08-10T11:00:31.268Z,26.84
2022-08-10T11:01:30.341Z,26.80
2022-08-10T11:02:30.251Z,26.47
2022-08-10T11:03:30.252Z,26.62
2022-08-10T11:04:30.268Z,26.99
2022-08-10T11:05:30.237Z,27.51
2022-08-10T11:06:39.867Z,27.42
2022-08-10T11:07:33.743Z,27.08
2022-08-10T11:08:31.224Z,27.32
2022-08-10T11:10:03.535Z,27.40
2022-08-10T11:10:32.490Z,27.21
2022-08-10T11:12:01.510Z,27.07
2022-08-10T11:12:31.181Z,27.22
2022-08-10T11:14:26.704Z,27.11
2022-08-10T11:14:31.228Z,27.05
2022-08-10T11:15:30.176Z,27.17
2022-08-10T11:16:30.155Z,27.49
2022-08-10T11:17:30.159Z,27.92
2022-08-10T11:18:30.139Z,27.93
2022-08-10T11:20:01.722Z,27.75
2022-08-10T11:20:31.120Z,27.64
2022-08-10T11:21:30.122Z,27.89
2022-08-10T11:22:30.109Z,27.27
2022-08-10T11:23:31.095Z,27.18
2022-08-10T11:24:48.539Z,26.93
2022-08-10T11:25:31.107Z,26.95
2022-08-10T11:26:30.076Z,26.99
2022-08-10T11:27:30.067Z,27.21
2022-08-10T11:28:30.068Z,27.48
2022-08-10T11:29:30.054Z,27.32
2022-08-10T11:30:30.068Z,27.40
2022-08-10T11:31:30.035Z,27.51
2022-08-10T11:32:31.033Z,27.35
2022-08-10T11:33:32.584Z,27.37
2022-08-10T11:34:48.423Z,27.33
2022-08-10T11:35:34.753Z,27.48
2022-08-10T11:36:31.015Z,27.36
2022-08-10T11:37:30.001Z,27.64
2022-08-10T11:38:42.890Z,27.75
2022-08-10T11:39:31.001Z,27.35
2022-08-10T11:40:30.001Z,27.65
2022-08-10T11:42:12.078Z,28.02
2022-08-10T11:42:35.677Z,27.93
2022-08-10T11:43:31.954Z,27.26
2022-08-10T11:44:29.944Z,26.85
2022-08-10T11:45:29.965Z,26.96
2022-08-10T11:46:29.970Z,27.08
2022-08-10T11:47:29.927Z,27.32
2022-08-10T11:48:53.853Z,27.58
2022-08-10T11:49:30.906Z,27.59
2022-08-10T11:50:29.928Z,27.32
2022-08-10T11:51:29.895Z,27.37
2022-08-10T11:52:29.895Z,27.73
2022-08-10T11:53:35.217Z,27.80
2022-08-10T11:54:30.876Z,27.78
2022-08-10T11:55:29.890Z,27.95
2022-08-10T11:56:29.863Z,27.67
2022-08-10T11:57:54.757Z,27.82
2022-08-10T11:58:30.840Z,27.93
2022-08-10T11:59:29.836Z,28.05
2022-08-10T12:00:32.716Z,28.08
2022-08-10T12:01:29.825Z,28.19
2022-08-10T12:02:29.863Z,28.38
2022-08-10T12:03:34.409Z,28.42
2022-08-10T12:04:31.790Z,28.26
2022-08-10T12:05:52.141Z,27.98
2022-08-10T12:06:54.286Z,28.04
2022-08-10T12:10:04.278Z,27.63
2022-08-10T12:10:06.755Z,27.80
2022-08-10T12:10:10.883Z,27.86
2022-08-10T12:10:30.793Z,28.07
2022-08-10T12:11:29.745Z,28.37
2022-08-10T12:12:29.735Z,28.19
2022-08-10T12:13:29.739Z,27.70
2022-08-10T12:14:29.749Z,27.54
2022-08-10T12:15:29.732Z,27.33
2022-08-10T12:16:29.705Z,26.99
2022-08-10T12:17:29.700Z,26.92
2022-08-10T12:18:29.690Z,27.11
2022-08-10T12:19:29.712Z,27.39
2022-08-10T12:20:30.686Z,27.30
2022-08-10T12:21:29.671Z,27.29
2022-08-10T12:22:29.687Z,27.11
2022-08-10T12:23:29.657Z,26.96
2022-08-10T12:24:29.684Z,26.96
2022-08-10T12:25:56.254Z,26.97
2022-08-10T12:26:30.634Z,26.93
2022-08-10T12:27:29.630Z,27.32
2022-08-10T12:28:51.351Z,27.85
2022-08-10T12:29:30.637Z,28.07
2022-08-10T12:30:30.606Z,28.29
2022-08-10T12:31:29.597Z,28.11
2022-08-10T12:32:29.594Z,28.29
2022-08-10T12:33:29.591Z,28.44
2022-08-10T12:34:29.572Z,28.57
2022-08-10T12:35:29.590Z,28.72
2022-08-10T12:36:29.558Z,28.41
2022-08-10T12:37:29.564Z,28.44
2022-08-10T12:38:29.554Z,28.44
2022-08-10T12:39:29.606Z,28.54
2022-08-10T12:40:35.566Z,28.14
2022-08-10T12:41:44.993Z,27.74
2022-08-10T12:42:36.920Z,27.85
2022-08-10T12:44:06.299Z,28.20
2022-08-10T12:44:42.224Z,28.37
2022-08-10T12:45:30.536Z,28.02
2022-08-10T12:46:29.486Z,28.05
2022-08-10T12:47:29.477Z,27.67
2022-08-10T12:48:31.316Z,27.77
2022-08-10T12:49:29.469Z,27.73
2022-08-10T12:50:33.321Z,27.68
2022-08-10T12:51:29.457Z,27.45
2022-08-10T12:52:29.450Z,27.78